Time;durP1;ratioP1;P1;durP2;ratioP2;P2;SDS_P1;SDS_P2;PMS_P1;PMS_P2;Temp;Humidity;BMP_temperature;BMP_pressure;BME280_temperature;BME280_humidity;BME280_pressure;Samples;Min_cycle;Max_cycle;Signal;HPM_P1;HPM_P2
2023/04/29 00:01:09;;;;;;;20.83;11.95;;;5.80;79.00;;;;;;5079634;28;20024;-77
2023/04/29 00:03:35;;;;;;;19.27;11.40;;;5.70;79.10;;;;;;5078474;28;20062;-77
2023/04/29 00:06:00;;;;;;;17.25;10.38;;;5.60;79.00;;;;;;5078434;28;20029;-76
2023/04/29 00:08:27;;;;;;;16.75;10.88;;;5.60;79.30;;;;;;5079954;28;20012;-77
2023/04/29 00:10:53;;;;;;;17.33;11.48;;;5.50;79.30;;;;;;5078666;28;20480;-77
2023/04/29 00:13:19;;;;;;;12.98;10.23;;;5.50;79.60;;;;;;5078417;28;20021;-77
2023/04/29 00:15:45;;;;;;;17.42;10.48;;;5.40;80.30;;;;;;5078296;28;20085;-77
2023/04/29 00:18:10;;;;;;;16.65;11.38;;;5.40;80.40;;;;;;5079755;28;20025;-77
2023/04/29 00:20:39;;;;;;;22.77;11.95;;;5.40;80.40;;;;;;5079545;28;20028;-77
2023/04/29 00:23:05;;;;;;;14.85;10.38;;;5.30;80.50;;;;;;5079646;28;20024;-77
2023/04/29 00:25:31;;;;;;;23.90;13.05;;;5.20;81.30;;;;;;5078395;28;20035;-77
2023/04/29 00:28:00;;;;;;;19.52;11.25;;;5.20;81.80;;;;;;5078246;28;20381;-77
2023/04/29 00:30:28;;;;;;;15.85;11.43;;;5.20;82.30;;;;;;5079580;28;20078;-77
2023/04/29 00:32:54;;;;;;;15.85;11.07;;;5.20;83.30;;;;;;5077956;28;20052;-77
2023/04/29 00:35:20;;;;;;;17.55;11.05;;;5.20;83.50;;;;;;5079547;28;20029;-76
2023/04/29 00:37:46;;;;;;;15.82;10.93;;;5.20;83.70;;;;;;5079440;28;20037;-77
2023/04/29 00:40:13;;;;;;;17.40;11.23;;;5.10;84.40;;;;;;5079429;28;20020;-77
2023/04/29 00:42:40;;;;;;;17.98;11.48;;;5.10;84.70;;;;;;5078070;28;20081;-77
2023/04/29 00:45:07;;;;;;;18.27;11.20;;;5.20;85.10;;;;;;5078303;28;20545;-77
2023/04/29 00:47:32;;;;;;;16.85;11.93;;;5.10;85.50;;;;;;5079401;28;20490;-77
2023/04/29 00:49:58;;;;;;;15.85;10.70;;;5.10;86.00;;;;;;5078047;28;20025;-77
2023/04/29 00:52:24;;;;;;;19.10;11.68;;;5.10;87.00;;;;;;5079212;28;20019;-77
2023/04/29 00:54:51;;;;;;;17.98;11.90;;;5.20;87.50;;;;;;5092255;28;20381;-77
2023/04/29 00:57:18;;;;;;;18.52;12.02;;;5.20;87.20;;;;;;5099489;28;20028;-77
2023/04/29 00:59:44;;;;;;;21.17;11.52;;;5.20;87.40;;;;;;5095355;28;20020;-77
2023/04/29 01:02:10;;;;;;;17.42;11.63;;;5.30;88.00;;;;;;5094911;28;20031;-77
2023/04/29 01:04:36;;;;;;;16.50;11.52;;;5.40;88.00;;;;;;5096106;28;20119;-76
2023/04/29 01:07:08;;;;;;;17.63;12.77;;;5.50;89.20;;;;;;5096045;28;20103;-77
2023/04/29 01:09:52;;;;;;;19.58;12.50;;;5.50;90.30;;;;;;5094841;28;20108;-77
2023/04/29 01:12:35;;;;;;;18.70;12.32;;;5.50;90.70;;;;;;5096401;28;20051;-77
2023/04/29 01:15:28;;;;;;;20.55;12.27;;;5.60;91.20;;;;;;5096268;28;20031;-77
2023/04/29 01:17:54;;;;;;;;;;;5.70;90.90;;;;;;5095252;28;20384;-77
2023/04/29 01:20:21;;;;;;;20.58;12.38;;;5.80;90.40;;;;;;5096125;28;19904;-77
2023/04/29 01:22:47;;;;;;;16.25;11.70;;;5.80;89.50;;;;;;5094597;28;20020;-77
2023/04/29 01:25:13;;;;;;;22.17;12.23;;;5.90;90.80;;;;;;5094557;28;20096;-77
2023/04/29 01:27:38;;;;;;;16.92;11.38;;;6.00;90.30;;;;;;5094561;28;20032;-77
2023/04/29 01:30:31;;;;;;;18.50;12.18;;;6.00;90.70;;;;;;5095950;28;20469;-77
2023/04/29 01:33:13;;;;;;;16.17;11.77;;;6.00;91.20;;;;;;5094269;28;20218;-77
2023/04/29 01:35:51;;;;;;;15.60;11.90;;;6.10;93.10;;;;;;5095803;28;20024;-77
2023/04/29 01:38:38;;;;;;;16.48;10.65;;;6.10;93.40;;;;;;5088436;28;20032;-77
2023/04/29 01:41:34;;;;;;;15.07;10.77;;;6.10;94.40;;;;;;5073916;28;20438;-77
2023/04/29 01:44:03;;;;;;;17.05;10.75;;;6.20;95.00;;;;;;5075295;28;20082;-77
2023/04/29 01:46:30;;;;;;;20.38;11.93;;;6.20;94.80;;;;;;5075258;28;20017;-77
2023/04/29 01:48:55;;;;;;;18.10;11.07;;;6.20;94.90;;;;;;5075256;28;20021;-77
2023/04/29 01:51:21;;;;;;;13.60;10.35;;;6.30;95.50;;;;;;5075186;28;20025;-77
2023/04/29 01:53:47;;;;;;;15.50;10.55;;;6.30;96.30;;;;;;5075089;28;20024;-77
2023/04/29 01:56:12;;;;;;;16.48;10.73;;;6.30;97.10;;;;;;5073994;28;20031;-76
2023/04/29 01:58:38;;;;;;;18.50;10.88;;;6.30;97.70;;;;;;5074997;28;20470;-77
2023/04/29 02:01:04;;;;;;;20.20;12.65;;;6.40;97.10;;;;;;5065438;28;20033;-77
2023/04/29 02:03:30;;;;;;;17.67;11.55;;;6.40;97.30;;;;;;5053455;28;20029;-77
2023/04/29 02:05:56;;;;;;;20.58;11.75;;;6.40;97.00;;;;;;5053600;28;20390;-77
2023/04/29 02:08:22;;;;;;;18.23;12.60;;;6.40;96.40;;;;;;5053781;28;20048;-77
2023/04/29 02:10:55;;;;;;;16.90;12.32;;;6.40;96.10;;;;;;5054599;28;20421;-77
2023/04/29 02:13:21;;;;;;;18.20;12.93;;;6.50;95.80;;;;;;5053566;28;20021;-77
2023/04/29 02:15:47;;;;;;;18.60;12.07;;;6.50;94.70;;;;;;5054684;28;20359;-77
2023/04/29 02:18:12;;;;;;;13.77;10.45;;;6.50;94.40;;;;;;5054670;28;20021;-77
2023/04/29 02:20:38;;;;;;;19.15;11.82;;;6.60;95.60;;;;;;5053232;28;20021;-77
2023/04/29 02:23:04;;;;;;;21.85;12.63;;;6.60;95.50;;;;;;5054556;28;20029;-77
2023/04/29 02:25:29;;;;;;;18.45;12.50;;;6.60;93.60;;;;;;5054661;28;20033;-77
2023/04/29 02:27:55;;;;;;;15.77;11.57;;;6.60;92.30;;;;;;5054442;28;20032;-77
2023/04/29 02:30:21;;;;;;;17.42;12.73;;;6.60;92.50;;;;;;5053182;28;20013;-77
2023/04/29 02:32:46;;;;;;;17.77;11.10;;;6.70;93.60;;;;;;5052840;28;20490;-77
2023/04/29 02:35:12;;;;;;;15.98;11.50;;;6.70;93.70;;;;;;5054426;28;20108;-77
2023/04/29 02:37:38;;;;;;;18.90;11.20;;;6.70;94.80;;;;;;5052886;28;20061;-77
2023/04/29 02:40:04;;;;;;;18.27;11.73;;;6.70;94.70;;;;;;5052973;28;20076;-77
2023/04/29 02:42:30;;;;;;;16.50;11.48;;;6.70;97.00;;;;;;5052882;28;20073;-77
2023/04/29 02:44:56;;;;;;;19.63;12.40;;;6.70;96.20;;;;;;5052729;28;20033;-77
2023/04/29 02:47:22;;;;;;;18.95;11.48;;;6.70;94.80;;;;;;5052860;28;20519;-77
2023/04/29 02:49:48;;;;;;;18.67;13.02;;;6.60;91.70;;;;;;5054039;28;20060;-77
2023/04/29 02:52:13;;;;;;;21.90;11.48;;;6.70;90.40;;;;;;5053928;28;20024;-77
2023/04/29 02:54:39;;;;;;;19.75;12.18;;;6.70;90.50;;;;;;5053943;28;20445;-77
2023/04/29 02:57:04;;;;;;;22.98;12.73;;;6.70;89.30;;;;;;5052569;28;20021;-77
2023/04/29 02:59:30;;;;;;;19.48;12.73;;;6.80;88.30;;;;;;5053946;28;20063;-76
2023/04/29 03:01:55;;;;;;;17.42;12.07;;;6.80;87.10;;;;;;5053842;28;20032;-77
2023/04/29 03:04:21;;;;;;;17.63;11.70;;;6.80;86.40;;;;;;5052555;28;20040;-76
2023/04/29 03:06:48;;;;;;;18.67;12.70;;;6.80;84.40;;;;;;5052382;28;20029;-77
2023/04/29 03:09:13;;;;;;;19.00;11.80;;;6.80;83.70;;;;;;5053783;28;20036;-77
2023/04/29 03:11:40;;;;;;;22.55;11.40;;;6.80;83.10;;;;;;5053623;28;20474;-77
2023/04/29 03:14:05;;;;;;;18.23;10.40;;;6.80;83.40;;;;;;5052432;28;20111;-77
2023/04/29 03:16:31;;;;;;;17.92;11.88;;;6.80;83.70;;;;;;5053527;28;20508;-77
2023/04/29 03:18:57;;;;;;;22.08;11.38;;;6.80;82.90;;;;;;5052258;28;20028;-77
2023/04/29 03:21:25;;;;;;;19.92;11.48;;;6.90;82.90;;;;;;5053601;28;20017;-77
2023/04/29 03:23:50;;;;;;;20.33;11.68;;;6.90;83.30;;;;;;5051568;28;20029;-77
2023/04/29 03:26:16;;;;;;;17.70;11.30;;;6.90;84.20;;;;;;5052225;28;20028;-77
2023/04/29 03:28:41;;;;;;;18.33;11.07;;;7.00;82.70;;;;;;5052104;28;20501;-77
2023/04/29 03:31:07;;;;;;;17.80;11.30;;;7.00;82.20;;;;;;5052187;28;20013;-77
2023/04/29 03:33:33;;;;;;;17.00;11.30;;;7.00;82.20;;;;;;5052005;28;20149;-77
2023/04/29 03:35:58;;;;;;;14.13;11.18;;;7.00;82.10;;;;;;5052036;28;20040;-77
2023/04/29 03:38:24;;;;;;;17.48;12.82;;;7.00;82.20;;;;;;5052107;28;20112;-77
2023/04/29 03:40:51;;;;;;;19.95;11.60;;;7.00;82.20;;;;;;5053438;28;20033;-77
2023/04/29 03:43:17;;;;;;;17.88;11.35;;;7.10;82.50;;;;;;5053044;28;20494;-77
2023/04/29 03:45:42;;;;;;;25.85;13.68;;;7.00;80.90;;;;;;5053232;28;20032;-77
2023/04/29 03:48:08;;;;;;;14.85;10.27;;;7.10;80.50;;;;;;5053187;28;20021;-77
2023/04/29 03:50:35;;;;;;;16.92;11.07;;;7.10;79.80;;;;;;5053161;28;20021;-77
2023/04/29 03:53:01;;;;;;;14.80;10.52;;;7.20;80.20;;;;;;5053104;28;20032;-77
2023/04/29 03:55:27;;;;;;;18.20;11.45;;;7.20;80.60;;;;;;5051851;28;20025;-77
2023/04/29 03:57:52;;;;;;;15.40;10.35;;;7.30;80.70;;;;;;5051837;28;20056;-77
2023/04/29 04:00:18;;;;;;;15.18;10.30;;;7.30;80.20;;;;;;5051923;28;20024;-77
2023/04/29 04:02:43;;;;;;;14.68;10.65;;;7.40;79.40;;;;;;5051925;28;20078;-77
2023/04/29 04:05:09;;;;;;;16.58;11.10;;;7.40;78.80;;;;;;5051762;28;20033;-77
2023/04/29 04:07:35;;;;;;;14.68;10.65;;;7.40;79.60;;;;;;5053003;28;20098;-77
2023/04/29 04:10:01;;;;;;;18.70;11.20;;;7.40;81.80;;;;;;5053100;28;20021;-77
2023/04/29 04:12:26;;;;;;;15.15;10.50;;;7.40;82.60;;;;;;5051732;28;20032;-77
2023/04/29 04:14:54;;;;;;;15.18;10.35;;;7.40;83.10;;;;;;5052972;28;20021;-76
2023/04/29 04:17:19;;;;;;;18.45;9.85;;;7.40;83.20;;;;;;5052957;28;20017;-77
2023/04/29 04:19:45;;;;;;;14.82;9.75;;;7.50;83.50;;;;;;5051696;28;20059;-76
2023/04/29 04:22:11;;;;;;;17.38;11.18;;;7.50;83.30;;;;;;5052853;28;20029;-76
2023/04/29 04:24:36;;;;;;;17.75;11.75;;;7.60;83.10;;;;;;5052837;28;20064;-77
2023/04/29 04:27:02;;;;;;;17.42;11.23;;;7.70;83.90;;;;;;5052789;28;20051;-77
2023/04/29 04:29:27;;;;;;;14.15;10.10;;;7.70;83.90;;;;;;5052923;28;20017;-76
2023/04/29 04:31:53;;;;;;;16.38;10.90;;;7.80;83.80;;;;;;5051472;28;20029;-77
2023/04/29 04:34:19;;;;;;;16.58;10.68;;;7.90;84.30;;;;;;5056253;28;20072;-76
2023/04/29 04:36:45;;;;;;;17.05;11.43;;;7.90;84.20;;;;;;5075184;28;20024;-77
2023/04/29 04:39:10;;;;;;;18.38;11.95;;;8.00;83.80;;;;;;5076841;28;20017;-77
2023/04/29 04:41:37;;;;;;;15.38;10.48;;;8.00;82.90;;;;;;5075290;28;20024;-77
2023/04/29 04:44:03;;;;;;;14.77;10.43;;;8.00;82.80;;;;;;5075045;28;20060;-77
2023/04/29 04:46:29;;;;;;;14.77;10.45;;;8.20;84.50;;;;;;5076711;28;20020;-76
2023/04/29 04:48:54;;;;;;;12.05;10.45;;;8.20;85.20;;;;;;5076213;28;20025;-76
2023/04/29 04:51:20;;;;;;;18.13;11.15;;;8.20;86.20;;;;;;5075008;28;20027;-77
2023/04/29 04:53:45;;;;;;;19.52;12.07;;;8.30;87.40;;;;;;5074747;28;20028;-76
2023/04/29 04:56:11;;;;;;;19.23;11.43;;;8.30;86.40;;;;;;5075019;28;20381;-77
2023/04/29 04:58:37;;;;;;;20.35;11.57;;;8.30;86.00;;;;;;5076172;28;20382;-77
2023/04/29 05:01:02;;;;;;;23.48;12.75;;;8.30;86.00;;;;;;5076152;28;20050;-76
2023/04/29 05:03:28;;;;;;;20.10;12.27;;;8.30;85.80;;;;;;5076105;28;20074;-77
2023/04/29 05:05:57;;;;;;;21.13;12.00;;;8.40;85.40;;;;;;5076113;28;20385;-77
2023/04/29 05:08:24;;;;;;;19.60;11.65;;;8.40;85.70;;;;;;5075509;28;20052;-77
2023/04/29 05:10:50;;;;;;;21.75;12.32;;;8.50;86.40;;;;;;5075325;28;20029;-77
2023/04/29 05:13:16;;;;;;;20.80;13.38;;;8.50;87.40;;;;;;5074761;28;20094;-77
2023/04/29 05:15:42;;;;;;;19.48;13.02;;;8.60;87.80;;;;;;5074273;28;20386;-77
2023/04/29 05:18:08;;;;;;;22.20;13.88;;;8.60;89.40;;;;;;5074094;28;20017;-78
2023/04/29 05:20:33;;;;;;;17.75;11.40;;;8.70;91.50;;;;;;5072780;28;20042;-76
2023/04/29 05:22:59;;;;;;;18.42;11.77;;;8.80;92.80;;;;;;5073805;28;20095;-76
2023/04/29 05:25:24;;;;;;;17.80;11.32;;;8.80;94.20;;;;;;5073991;28;20069;-77
2023/04/29 05:27:50;;;;;;;15.82;10.98;;;8.80;93.60;;;;;;5072679;28;20065;-77
2023/04/29 05:30:17;;;;;;;12.60;9.52;;;8.80;95.80;;;;;;5074025;28;20025;-77
2023/04/29 05:32:44;;;;;;;14.13;9.65;;;8.80;95.80;;;;;;5073564;28;20024;-77
2023/04/29 05:35:10;;;;;;;12.85;9.68;;;8.90;96.50;;;;;;5072708;28;20505;-76
2023/04/29 05:37:37;;;;;;;13.00;9.63;;;8.90;96.80;;;;;;5073921;28;20131;-76
2023/04/29 05:40:03;;;;;;;18.45;10.82;;;8.90;96.70;;;;;;5073469;28;20112;-77
2023/04/29 05:42:29;;;;;;;12.55;9.65;;;9.00;96.80;;;;;;5073746;28;20051;-77
2023/04/29 05:44:54;;;;;;;13.02;9.52;;;9.00;96.60;;;;;;5071812;28;20552;-77
2023/04/29 05:47:20;;;;;;;12.30;8.90;;;9.10;96.20;;;;;;5069607;28;20103;-77
2023/04/29 05:49:46;;;;;;;11.25;8.45;;;9.20;95.60;;;;;;5074696;28;20032;-77
2023/04/29 05:52:12;;;;;;;12.80;8.88;;;9.20;94.40;;;;;;5074885;28;20025;-77
2023/04/29 05:54:37;;;;;;;12.80;8.50;;;9.30;95.10;;;;;;5075072;28;20032;-77
2023/04/29 05:57:03;;;;;;;14.85;9.57;;;9.40;95.30;;;;;;5074820;28;20024;-77
2023/04/29 05:59:30;;;;;;;10.63;8.35;;;9.40;91.80;;;;;;5073289;28;20113;-77
2023/04/29 06:01:56;;;;;;;13.23;8.38;;;9.50;91.80;;;;;;5074224;28;20016;-77
2023/04/29 06:04:21;;;;;;;13.75;8.65;;;9.50;91.80;;;;;;5073584;28;20074;-77
2023/04/29 06:06:47;;;;;;;13.82;8.05;;;9.60;91.80;;;;;;5082997;28;20403;-76
2023/04/29 06:09:17;;;;;;;11.82;7.95;;;9.70;91.90;;;;;;5073347;28;20107;-77
2023/04/29 06:11:43;;;;;;;13.82;8.90;;;9.80;92.90;;;;;;5074406;28;20107;-78
2023/04/29 06:14:09;;;;;;;11.00;8.18;;;9.90;96.80;;;;;;5073321;28;20027;-77
2023/04/29 06:16:35;;;;;;;14.20;8.55;;;10.00;93.50;;;;;;5073305;28;20115;-77
2023/04/29 06:19:00;;;;;;;12.32;8.05;;;10.10;91.00;;;;;;5072254;28;20028;-77
2023/04/29 06:21:30;;;;;;;8.25;7.13;;;10.20;93.20;;;;;;5072883;28;20474;-77
2023/04/29 06:23:56;;;;;;;9.52;7.22;;;10.30;89.30;;;;;;5072945;28;20021;-77
2023/04/29 06:26:21;;;;;;;9.40;7.30;;;10.30;87.80;;;;;;5072118;28;20027;-77
2023/04/29 06:28:47;;;;;;;11.73;7.57;;;10.40;88.10;;;;;;5072814;28;20023;-77
2023/04/29 06:31:13;;;;;;;11.23;7.78;;;10.50;89.20;;;;;;5072724;28;20029;-77
2023/04/29 06:33:38;;;;;;;10.48;7.75;;;10.40;89.80;;;;;;5072582;28;20121;-77
2023/04/29 06:36:04;;;;;;;10.38;7.13;;;10.60;90.40;;;;;;5072430;28;20580;-77
2023/04/29 06:38:30;;;;;;;9.85;6.30;;;10.60;87.40;;;;;;5072009;28;20024;-77
2023/04/29 06:41:03;;;;;;;9.88;6.95;;;10.60;87.10;;;;;;5072911;28;20135;-77
2023/04/29 06:43:29;;;;;;;10.10;6.45;;;10.70;89.30;;;;;;5067367;28;20094;-77
2023/04/29 06:45:55;;;;;;;9.30;6.82;;;10.70;87.90;;;;;;5068711;28;20494;-77
2023/04/29 06:48:21;;;;;;;9.27;6.47;;;10.80;87.80;;;;;;5072768;28;20044;-76
2023/04/29 06:50:51;;;;;;;11.85;6.40;;;10.80;87.60;;;;;;5072533;28;20051;-77
2023/04/29 06:53:16;;;;;;;8.82;6.50;;;10.90;86.00;;;;;;5072491;28;20032;-77
2023/04/29 06:55:42;;;;;;;9.25;7.25;;;11.00;85.20;;;;;;5072533;28;20025;-77
2023/04/29 06:58:08;;;;;;;10.15;6.72;;;11.10;86.60;;;;;;5073346;28;20051;-77
2023/04/29 07:00:33;;;;;;;10.07;6.80;;;11.20;85.10;;;;;;5052239;28;20028;-76
2023/04/29 07:02:59;;;;;;;8.43;6.38;;;11.30;88.40;;;;;;5059505;28;20120;-77
2023/04/29 07:05:25;;;;;;;10.48;7.72;;;11.50;90.40;;;;;;5071137;28;20039;-77
2023/04/29 07:07:50;;;;;;;9.98;7.32;;;11.50;86.90;;;;;;5071153;28;20430;-77
2023/04/29 07:10:16;;;;;;;7.43;5.93;;;11.60;86.80;;;;;;5071162;28;20032;-77
2023/04/29 07:12:42;;;;;;;18.02;10.27;;;11.70;83.20;;;;;;5087957;28;20095;-77
2023/04/29 07:15:07;;;;;;;20.83;14.40;;;11.80;81.80;;;;;;5091310;28;20377;-77
2023/04/29 07:17:33;;;;;;;16.85;11.63;;;12.00;79.10;;;;;;5092842;28;20027;-78
2023/04/29 07:19:59;;;;;;;9.52;8.05;;;12.00;81.00;;;;;;5092432;28;20029;-77
2023/04/29 07:22:24;;;;;;;16.02;12.77;;;12.00;78.70;;;;;;5092974;28;20531;-77
2023/04/29 07:24:53;;;;;;;12.55;9.32;;;12.00;82.30;;;;;;5076933;28;20111;-77
2023/04/29 07:27:19;;;;;;;29.63;19.15;;;12.10;81.00;;;;;;5069299;28;20024;-77
2023/04/29 07:29:45;;;;;;;13.27;9.50;;;12.10;79.30;;;;;;5070392;28;20035;-77
2023/04/29 07:32:10;;;;;;;18.25;10.00;;;12.10;80.00;;;;;;5071214;28;20032;-77
2023/04/29 07:34:36;;;;;;;14.68;9.65;;;12.10;79.70;;;;;;5066919;28;20049;-77
2023/04/29 07:37:02;;;;;;;13.40;9.88;;;12.20;81.60;;;;;;5072284;28;20021;-77
2023/04/29 07:39:29;;;;;;;13.95;8.40;;;12.20;82.00;;;;;;5072042;28;20386;-77
2023/04/29 07:41:54;;;;;;;14.02;8.85;;;12.30;82.50;;;;;;5071526;28;20036;-76
2023/04/29 07:44:20;;;;;;;12.20;8.15;;;12.30;81.30;;;;;;5071020;28;20051;-77
2023/04/29 07:46:46;;;;;;;10.07;7.18;;;12.40;82.20;;;;;;5070958;28;20428;-77
2023/04/29 07:49:12;;;;;;;8.93;6.80;;;12.60;81.50;;;;;;5072396;28;20075;-77
2023/04/29 07:51:41;;;;;;;9.57;6.57;;;12.60;80.50;;;;;;5071038;28;20111;-77
2023/04/29 07:54:07;;;;;;;10.85;7.10;;;12.70;79.70;;;;;;5072105;28;20040;-77
2023/04/29 07:56:32;;;;;;;11.20;6.57;;;12.80;79.10;;;;;;5072500;28;20500;-77
2023/04/29 07:59:01;;;;;;;10.15;6.65;;;12.80;80.40;;;;;;5058202;28;20105;-78
2023/04/29 08:01:27;;;;;;;9.45;6.15;;;12.80;79.20;;;;;;5073324;28;20162;-77
2023/04/29 08:03:53;;;;;;;8.70;6.10;;;12.80;77.80;;;;;;5070464;28;20048;-77
2023/04/29 08:06:21;;;;;;;13.23;7.00;;;12.80;76.90;;;;;;5071301;28;20061;-77
2023/04/29 08:08:47;;;;;;;13.40;6.60;;;12.70;76.70;;;;;;5070726;28;20101;-77
2023/04/29 08:11:16;;;;;;;8.60;6.72;;;12.70;77.50;;;;;;5074548;28;20025;-77
2023/04/29 08:13:42;;;;;;;13.00;6.75;;;12.60;77.60;;;;;;5070283;28;20056;-77
2023/04/29 08:16:08;;;;;;;11.10;7.53;;;12.50;77.70;;;;;;5069365;28;20109;-77
2023/04/29 08:18:35;;;;;;;11.57;7.10;;;12.40;78.90;;;;;;5069637;28;20572;-77
2023/04/29 08:21:01;;;;;;;11.32;7.18;;;12.40;79.10;;;;;;5070760;28;20028;-77
2023/04/29 08:23:27;;;;;;;12.27;7.43;;;12.30;79.70;;;;;;5069037;28;20025;-77
2023/04/29 08:25:54;;;;;;;16.60;8.63;;;12.30;80.20;;;;;;5071996;28;20063;-77
2023/04/29 08:28:20;;;;;;;11.40;7.53;;;12.30;81.20;;;;;;5072938;28;20031;-77
2023/04/29 08:30:46;;;;;;;13.50;7.63;;;12.20;81.50;;;;;;5074115;28;20097;-77
2023/04/29 08:33:12;;;;;;;9.95;6.38;;;12.20;83.00;;;;;;5075648;28;20048;-77
2023/04/29 08:35:38;;;;;;;8.82;6.95;;;12.20;83.00;;;;;;5073322;28;20041;-77
2023/04/29 08:38:08;;;;;;;13.48;8.07;;;12.20;84.10;;;;;;5072809;28;20051;-77
2023/04/29 08:40:51;;;;;;;10.45;7.30;;;12.20;85.80;;;;;;5074250;28;20036;-77
2023/04/29 08:43:17;;;;;;;10.38;6.63;;;12.10;86.80;;;;;;5075009;28;20394;-77
2023/04/29 08:45:44;;;;;;;11.90;7.57;;;12.10;88.30;;;;;;5073779;28;20032;-77
2023/04/29 08:48:10;;;;;;;22.80;13.25;;;12.00;89.80;;;;;;5073262;28;20028;-77
2023/04/29 08:50:40;;;;;;;18.33;10.65;;;12.00;92.40;;;;;;5073830;28;20108;-77
2023/04/29 08:53:10;;;;;;;22.13;11.48;;;12.10;93.40;;;;;;5073883;28;20069;-77
2023/04/29 08:55:41;;;;;;;25.83;15.35;;;12.00;94.80;;;;;;5074156;28;20119;-77
2023/04/29 08:58:07;;;;;;;14.18;9.15;;;12.00;96.90;;;;;;5068788;28;20055;-77
2023/04/29 09:00:38;;;;;;;16.05;8.82;;;12.00;97.20;;;;;;5055256;28;20095;-76
2023/04/29 09:03:20;;;;;;;14.25;7.93;;;12.00;97.40;;;;;;5062164;28;20037;-76
2023/04/29 09:05:49;;;;;;;11.05;7.20;;;12.00;93.90;;;;;;5054778;28;20106;-77
2023/04/29 09:08:15;;;;;;;11.65;8.55;;;12.10;93.60;;;;;;5069597;28;20025;-77
2023/04/29 09:10:41;;;;;;;13.63;8.50;;;12.10;92.30;;;;;;5073406;28;20028;-76
2023/04/29 09:13:07;;;;;;;13.18;7.68;;;12.20;92.40;;;;;;5074511;28;20390;-77
2023/04/29 09:15:39;;;;;;;12.63;7.53;;;12.30;92.10;;;;;;5073604;28;20036;-77
2023/04/29 09:18:05;;;;;;;9.90;6.38;;;12.50;91.30;;;;;;5075143;28;20366;-76
2023/04/29 09:20:30;;;;;;;9.18;6.97;;;12.60;88.40;;;;;;5072643;28;20036;-77
2023/04/29 09:23:00;;;;;;;8.05;6.53;;;12.70;88.00;;;;;;5073452;28;20020;-76
2023/04/29 09:25:26;;;;;;;9.68;7.18;;;12.70;85.90;;;;;;5073252;28;20041;-76
2023/04/29 09:27:52;;;;;;;14.27;8.38;;;12.90;87.20;;;;;;5072381;28;20539;-77
2023/04/29 09:30:18;;;;;;;11.30;7.20;;;13.10;86.80;;;;;;5074791;28;20390;-76
2023/04/29 09:32:46;;;;;;;8.50;6.75;;;13.20;83.40;;;;;;5074197;28;20025;-77
2023/04/29 09:35:26;;;;;;;12.85;7.25;;;13.50;82.40;;;;;;5073478;28;20090;-77
2023/04/29 09:38:08;;;;;;;9.98;6.07;;;13.70;81.20;;;;;;5073006;28;20029;-77
2023/04/29 09:40:34;;;;;;;8.48;7.03;;;13.80;79.70;;;;;;5073740;28;20049;-77
2023/04/29 09:43:00;;;;;;;8.23;6.75;;;13.80;78.70;;;;;;5072915;28;20397;-77
2023/04/29 09:45:41;;;;;;;12.23;7.82;;;13.70;77.70;;;;;;5073043;28;20604;-77
2023/04/29 09:48:08;;;;;;;8.15;6.78;;;13.60;79.30;;;;;;5074372;28;20028;-77
2023/04/29 09:50:38;;;;;;;9.32;6.57;;;13.50;80.60;;;;;;5073336;28;20082;-77
2023/04/29 09:53:09;;;;;;;10.90;6.55;;;13.40;80.90;;;;;;5073001;28;20074;-76
2023/04/29 09:55:36;;;;;;;8.85;6.82;;;13.30;81.40;;;;;;5074353;28;20374;-77
2023/04/29 09:58:02;;;;;;;12.65;8.25;;;13.20;82.10;;;;;;5072996;28;20021;-77
2023/04/29 10:00:32;;;;;;;11.30;6.88;;;13.20;83.00;;;;;;5070405;28;20107;-77
2023/04/29 10:03:00;;;;;;;13.02;9.27;;;13.20;84.80;;;;;;5073503;28;20021;-76
2023/04/29 10:05:31;;;;;;;13.80;9.20;;;13.20;83.30;;;;;;5074818;28;20554;-76
2023/04/29 10:07:58;;;;;;;11.13;8.40;;;13.20;83.60;;;;;;5073766;28;20481;-77
2023/04/29 10:10:24;;;;;;;13.60;8.70;;;13.10;88.70;;;;;;5073481;28;20044;-76
2023/04/29 10:12:52;;;;;;;10.82;8.02;;;13.20;90.50;;;;;;5074541;28;20028;-77
2023/04/29 10:15:57;;;;;;;8.90;7.95;;;13.30;88.80;;;;;;5071589;28;20024;-76
2023/04/29 10:18:34;;;;;;;12.32;8.45;;;13.40;90.30;;;;;;5071428;28;20051;-76
2023/04/29 10:21:03;;;;;;;9.60;7.78;;;13.50;93.00;;;;;;5072487;28;20509;-76
2023/04/29 10:23:29;;;;;;;13.70;6.97;;;13.50;91.40;;;;;;5072321;28;20028;-76
2023/04/29 10:25:58;;;;;;;11.02;6.72;;;13.60;84.90;;;;;;5072311;28;20365;-77
2023/04/29 10:28:24;;;;;;;10.52;6.72;;;13.50;81.60;;;;;;5071113;28;20055;-76
2023/04/29 10:30:51;;;;;;;11.63;7.10;;;13.60;81.40;;;;;;5074269;28;20032;-76
2023/04/29 10:33:17;;;;;;;13.80;6.82;;;13.70;81.90;;;;;;5074049;28;20101;-77
2023/04/29 10:35:43;;;;;;;9.35;6.70;;;14.00;80.90;;;;;;5074312;28;20024;-77
2023/04/29 10:38:35;;;;;;;9.43;5.93;;;14.10;78.70;;;;;;5074174;28;20016;-76
2023/04/29 10:41:08;;;;;;;10.27;6.43;;;14.20;77.60;;;;;;5074202;28;20085;-77
2023/04/29 10:43:34;;;;;;;9.10;5.80;;;14.50;76.30;;;;;;5074120;28;20036;-77
2023/04/29 10:46:19;;;;;;;11.70;6.47;;;14.60;76.00;;;;;;5072817;28;20025;-76
2023/04/29 10:48:49;;;;;;;9.52;5.72;;;14.80;75.20;;;;;;5074137;28;20021;-76
2023/04/29 10:51:31;;;;;;;8.63;5.95;;;15.00;73.00;;;;;;5074135;28;20040;-77
2023/04/29 10:54:08;;;;;;;9.07;6.53;;;15.00;71.40;;;;;;5074066;28;20024;-77
2023/04/29 10:56:42;;;;;;;8.38;5.90;;;15.20;72.80;;;;;;5072706;28;20606;-77
2023/04/29 10:59:13;;;;;;;8.77;5.40;;;15.50;71.80;;;;;;5073891;28;20028;-76
2023/04/29 11:01:50;;;;;;;7.85;5.25;;;15.50;71.00;;;;;;5072485;28;20017;-77
2023/04/29 11:04:17;;;;;;;6.82;4.97;;;15.50;70.90;;;;;;5073793;28;20394;-77
2023/04/29 11:06:50;;;;;;;11.48;6.40;;;15.50;69.50;;;;;;5073128;28;20020;-77
2023/04/29 11:09:27;;;;;;;7.50;5.63;;;15.50;70.30;;;;;;5071911;28;20031;-76
2023/04/29 11:12:01;;;;;;;8.52;5.50;;;15.50;70.80;;;;;;5073483;28;20024;-77
2023/04/29 11:14:41;;;;;;;7.30;5.85;;;15.40;68.80;;;;;;5071968;28;20051;-77
2023/04/29 11:17:10;;;;;;;6.38;5.13;;;15.50;69.80;;;;;;5071072;28;20028;-77
2023/04/29 11:19:48;;;;;;;9.95;6.03;;;15.70;70.20;;;;;;5071600;28;20112;-76
2023/04/29 11:22:17;;;;;;;15.27;8.40;;;15.90;69.60;;;;;;5072715;28;20024;-76
2023/04/29 11:24:51;;;;;;;7.80;6.00;;;16.00;69.20;;;;;;5068821;28;20040;-77
2023/04/29 11:27:19;;;;;;;9.15;6.20;;;16.00;68.10;;;;;;5072544;28;20103;-76
2023/04/29 11:29:49;;;;;;;9.18;6.53;;;16.00;67.90;;;;;;5071438;28;20169;-76
2023/04/29 11:32:15;;;;;;;17.10;9.82;;;15.90;67.90;;;;;;5071380;28;20063;-76
2023/04/29 11:34:41;;;;;;;9.60;6.30;;;15.60;68.30;;;;;;5072386;28;20044;-77
2023/04/29 11:37:07;;;;;;;9.63;7.10;;;15.60;68.40;;;;;;5071351;28;20107;-77
2023/04/29 11:39:34;;;;;;;9.43;6.65;;;15.50;68.50;;;;;;5071407;28;20475;-76
2023/04/29 11:42:06;;;;;;;13.90;8.18;;;15.50;69.30;;;;;;5072512;28;20020;-76
2023/04/29 11:44:36;;;;;;;16.17;10.00;;;15.30;70.00;;;;;;5071836;28;20037;-76
2023/04/29 11:47:07;;;;;;;24.38;12.98;;;15.20;69.90;;;;;;5068717;28;20020;-76
2023/04/29 11:49:33;;;;;;;26.52;13.00;;;15.20;69.80;;;;;;5072520;28;20091;-77
2023/04/29 11:52:00;;;;;;;27.17;13.15;;;15.10;69.30;;;;;;5072150;28;20061;-77
2023/04/29 11:54:26;;;;;;;12.57;7.85;;;15.10;69.80;;;;;;5072656;28;20015;-76
2023/04/29 11:56:57;;;;;;;8.70;7.32;;;15.20;70.80;;;;;;5072081;28;20021;-77
2023/04/29 11:59:23;;;;;;;9.70;7.65;;;15.20;70.70;;;;;;5072259;28;20074;-76
2023/04/29 12:01:49;;;;;;;9.23;7.05;;;15.20;70.20;;;;;;5072413;28;20024;-76
2023/04/29 12:04:15;;;;;;;13.18;7.97;;;15.10;70.10;;;;;;5071114;28;20033;-77
2023/04/29 12:06:41;;;;;;;17.02;9.57;;;15.10;70.90;;;;;;5071032;28;20025;-77
2023/04/29 12:09:07;;;;;;;12.27;9.10;;;15.00;71.80;;;;;;5071594;28;20024;-76
2023/04/29 12:11:34;;;;;;;12.43;9.32;;;14.90;72.10;;;;;;5072181;28;20086;-76
2023/04/29 12:14:02;;;;;;;13.38;8.55;;;14.80;72.20;;;;;;5070862;28;20496;-77
2023/04/29 12:16:29;;;;;;;14.32;9.20;;;14.80;72.40;;;;;;5071078;28;20100;-76
2023/04/29 12:18:55;;;;;;;25.30;13.95;;;14.70;72.30;;;;;;5070927;28;20017;-76
2023/04/29 12:21:21;;;;;;;22.88;11.90;;;14.60;73.40;;;;;;5070217;28;20150;-77
2023/04/29 12:23:47;;;;;;;23.77;13.27;;;14.60;74.10;;;;;;5071638;28;20107;-76
2023/04/29 12:26:13;;;;;;;29.17;14.65;;;14.50;74.50;;;;;;5070781;28;20108;-76
2023/04/29 12:28:41;;;;;;;16.52;9.80;;;14.40;75.00;;;;;;5071084;28;20033;-77
2023/04/29 12:31:10;;;;;;;17.48;11.80;;;14.50;75.20;;;;;;5069850;28;20013;-76
2023/04/29 12:33:36;;;;;;;13.30;9.30;;;14.50;75.80;;;;;;5069709;28;20505;-77
2023/04/29 12:36:02;;;;;;;13.80;10.02;;;14.50;74.90;;;;;;5070630;28;20150;-76
2023/04/29 12:38:30;;;;;;;14.32;10.48;;;14.50;75.60;;;;;;5070167;28;20066;-76
2023/04/29 12:40:58;;;;;;;13.07;9.43;;;14.50;75.10;;;;;;5071984;28;20091;-77